sensor_id;sensor_type;location;lat;lon;timestamp;temperature;humidity
75113;DHT22;63692;47.338;8.520;2022-11-20T06:04:20;5.30;90.70
75113;DHT22;63692;47.338;8.520;2022-11-20T06:06:46;5.30;90.30
75113;DHT22;63692;47.338;8.520;2022-11-20T06:09:11;5.30;89.50
75113;DHT22;63692;47.338;8.520;2022-11-20T06:29:00;5.80;88.90
75113;DHT22;63692;47.338;8.520;2022-11-20T06:31:26;5.80;88.50
75113;DHT22;63692;47.338;8.520;2022-11-20T06:33:52;5.80;88.20
75113;DHT22;63692;47.338;8.520;2022-11-20T06:36:19;5.90;88.40
75113;DHT22;63692;47.338;8.520;2022-11-20T07:26:13;6.30;88.70
75113;DHT22;63692;47.338;8.520;2022-11-20T07:31:10;6.30;86.90
75113;DHT22;63692;47.338;8.520;2022-11-20T07:53:27;6.60;82.30
75113;DHT22;63692;47.338;8.520;2022-11-20T07:58:21;6.60;82.70
75113;DHT22;63692;47.338;8.520;2022-11-20T08:00:46;6.60;82.80
75113;DHT22;63692;47.338;8.520;2022-11-20T08:03:12;6.60;81.60
75113;DHT22;63692;47.338;8.520;2022-11-20T08:23:22;6.70;81.50
75113;DHT22;63692;47.338;8.520;2022-11-20T08:30:51;6.70;81.20
75113;DHT22;63692;47.338;8.520;2022-11-20T08:33:17;6.70;81.30
75113;DHT22;63692;47.338;8.520;2022-11-20T08:38:12;6.80;81.20
75113;DHT22;63692;47.338;8.520;2022-11-20T08:43:05;6.70;81.20
75113;DHT22;63692;47.338;8.520;2022-11-20T08:50:25;6.80;80.40
75113;DHT22;63692;47.338;8.520;2022-11-20T08:52:51;6.80;80.50
75113;DHT22;63692;47.338;8.520;2022-11-20T08:55:17;6.90;80.10
75113;DHT22;63692;47.338;8.520;2022-11-20T08:57:42;7.00;80.60
75113;DHT22;63692;47.338;8.520;2022-11-20T09:00:10;7.10;80.30
75113;DHT22;63692;47.338;8.520;2022-11-20T09:02:36;7.00;79.40
75113;DHT22;63692;47.338;8.520;2022-11-20T09:05:02;7.10;79.70
75113;DHT22;63692;47.338;8.520;2022-11-20T09:07:29;7.10;79.70
75113;DHT22;63692;47.338;8.520;2022-11-20T09:09:55;7.20;78.20
75113;DHT22;63692;47.338;8.520;2022-11-20T09:12:20;7.10;78.20
75113;DHT22;63692;47.338;8.520;2022-11-20T09:14:46;7.10;79.00
75113;DHT22;63692;47.338;8.520;2022-11-20T09:17:11;7.20;78.70
75113;DHT22;63692;47.338;8.520;2022-11-20T09:19:40;7.30;77.30
75113;DHT22;63692;47.338;8.520;2022-11-20T09:22:06;7.30;77.40
75113;DHT22;63692;47.338;8.520;2022-11-20T09:24:32;7.30;77.10
75113;DHT22;63692;47.338;8.520;2022-11-20T09:26:57;7.40;77.20
75113;DHT22;63692;47.338;8.520;2022-11-20T09:29:23;7.30;77.00
75113;DHT22;63692;47.338;8.520;2022-11-20T09:31:48;7.40;77.30
75113;DHT22;63692;47.338;8.520;2022-11-20T09:34:14;7.40;77.30
75113;DHT22;63692;47.338;8.520;2022-11-20T09:36:40;7.40;77.60
75113;DHT22;63692;47.338;8.520;2022-11-20T09:39:05;7.40;77.70
75113;DHT22;63692;47.338;8.520;2022-11-20T09:41:51;7.50;77.30
75113;DHT22;63692;47.338;8.520;2022-11-20T09:49:53;7.60;76.60
75113;DHT22;63692;47.338;8.520;2022-11-20T09:52:22;7.60;76.50
75113;DHT22;63692;47.338;8.520;2022-11-20T09:54:52;7.70;76.70
75113;DHT22;63692;47.338;8.520;2022-11-20T09:57:23;7.70;76.60
75113;DHT22;63692;47.338;8.520;2022-11-20T09:59:55;7.70;76.50
75113;DHT22;63692;47.338;8.520;2022-11-20T10:05:01;7.70;76.00
75113;DHT22;63692;47.338;8.520;2022-11-20T10:07:53;7.80;75.70
75113;DHT22;63692;47.338;8.520;2022-11-20T10:10:33;7.80;75.60
75113;DHT22;63692;47.338;8.520;2022-11-20T10:16:13;7.80;76.30
75113;DHT22;63692;47.338;8.520;2022-11-20T10:18:59;7.80;75.50
75113;DHT22;63692;47.338;8.520;2022-11-20T10:21:56;7.90;75.00
75113;DHT22;63692;47.338;8.520;2022-11-20T10:24:48;8.00;74.70
75113;DHT22;63692;47.338;8.520;2022-11-20T10:30:20;8.10;74.60
75113;DHT22;63692;47.338;8.520;2022-11-20T10:32:58;8.10;73.20
75113;DHT22;63692;47.338;8.520;2022-11-20T10:35:35;8.20;73.70
75113;DHT22;63692;47.338;8.520;2022-11-20T10:38:09;8.30;73.40
75113;DHT22;63692;47.338;8.520;2022-11-20T10:40:39;8.20;73.70
75113;DHT22;63692;47.338;8.520;2022-11-20T10:43:28;8.30;73.60
75113;DHT22;63692;47.338;8.520;2022-11-20T10:46:03;8.30;73.30
75113;DHT22;63692;47.338;8.520;2022-11-20T10:48:31;8.30;72.00
75113;DHT22;63692;47.338;8.520;2022-11-20T10:54:10;8.30;72.50
75113;DHT22;63692;47.338;8.520;2022-11-20T10:56:52;8.40;72.50
75113;DHT22;63692;47.338;8.520;2022-11-20T11:01:58;8.30;72.50
75113;DHT22;63692;47.338;8.520;2022-11-20T11:04:57;8.30;72.90
75113;DHT22;63692;47.338;8.520;2022-11-20T11:07:24;8.20;73.20
75113;DHT22;63692;47.338;8.520;2022-11-20T11:09:53;8.30;73.40
75113;DHT22;63692;47.338;8.520;2022-11-20T11:12:20;8.30;72.20
75113;DHT22;63692;47.338;8.520;2022-11-20T11:14:52;8.30;71.80
75113;DHT22;63692;47.338;8.520;2022-11-20T11:17:30;8.30;71.90
75113;DHT22;63692;47.338;8.520;2022-11-20T11:20:04;8.40;72.50
75113;DHT22;63692;47.338;8.520;2022-11-20T11:22:33;8.50;71.90
75113;DHT22;63692;47.338;8.520;2022-11-20T11:25:00;8.50;72.20
75113;DHT22;63692;47.338;8.520;2022-11-20T11:27:25;8.70;71.40
75113;DHT22;63692;47.338;8.520;2022-11-20T11:30:03;8.70;70.40
75113;DHT22;63692;47.338;8.520;2022-11-20T11:32:29;8.60;70.30
75113;DHT22;63692;47.338;8.520;2022-11-20T11:35:03;8.60;70.60
75113;DHT22;63692;47.338;8.520;2022-11-20T11:37:34;8.60;71.30
75113;DHT22;63692;47.338;8.520;2022-11-20T11:40:01;8.70;70.40
75113;DHT22;63692;47.338;8.520;2022-11-20T11:42:28;8.70;71.70
75113;DHT22;63692;47.338;8.520;2022-11-20T11:44:55;8.80;71.10
75113;DHT22;63692;47.338;8.520;2022-11-20T11:47:37;8.80;70.50
75113;DHT22;63692;47.338;8.520;2022-11-20T11:55:43;8.80;69.80
75113;DHT22;63692;47.338;8.520;2022-11-20T11:58:29;8.80;70.80
75113;DHT22;63692;47.338;8.520;2022-11-20T12:01:07;8.80;70.20
75113;DHT22;63692;47.338;8.520;2022-11-20T12:03:40;8.80;69.20
75113;DHT22;63692;47.338;8.520;2022-11-20T12:06:13;8.80;67.90
75113;DHT22;63692;47.338;8.520;2022-11-20T12:11:27;8.60;68.20
75113;DHT22;63692;47.338;8.520;2022-11-20T12:16:37;8.60;69.70
75113;DHT22;63692;47.338;8.520;2022-11-20T12:19:12;8.60;69.80
75113;DHT22;63692;47.338;8.520;2022-11-20T12:24:55;8.70;69.40
75113;DHT22;63692;47.338;8.520;2022-11-20T12:35:52;8.80;69.30
75113;DHT22;63692;47.338;8.520;2022-11-20T12:50:15;9.10;67.50
75113;DHT22;63692;47.338;8.520;2022-11-20T12:53:00;9.10;66.90
75113;DHT22;63692;47.338;8.520;2022-11-20T12:55:41;9.10;67.50
75113;DHT22;63692;47.338;8.520;2022-11-20T13:07:11;9.10;66.30
75113;DHT22;63692;47.338;8.520;2022-11-20T13:09:48;9.10;67.10
75113;DHT22;63692;47.338;8.520;2022-11-20T13:12:40;9.20;66.80
75113;DHT22;63692;47.338;8.520;2022-11-20T13:18:04;9.20;65.00
75113;DHT22;63692;47.338;8.520;2022-11-20T13:20:32;9.20;65.50
75113;DHT22;63692;47.338;8.520;2022-11-20T13:22:58;9.30;66.10
75113;DHT22;63692;47.338;8.520;2022-11-20T13:25:27;9.30;63.80
75113;DHT22;63692;47.338;8.520;2022-11-20T13:27:54;9.40;62.80
75113;DHT22;63692;47.338;8.520;2022-11-20T13:30:26;9.30;64.40
75113;DHT22;63692;47.338;8.520;2022-11-20T13:32:54;9.40;63.10
75113;DHT22;63692;47.338;8.520;2022-11-20T13:35:34;9.60;62.00
75113;DHT22;63692;47.338;8.520;2022-11-20T13:38:11;9.90;61.50
75113;DHT22;63692;47.338;8.520;2022-11-20T13:40:50;10.50;60.50
75113;DHT22;63692;47.338;8.520;2022-11-20T13:46:01;11.40;58.70
75113;DHT22;63692;47.338;8.520;2022-11-20T13:48:41;11.70;55.50
75113;DHT22;63692;47.338;8.520;2022-11-20T13:51:23;11.90;54.40
75113;DHT22;63692;47.338;8.520;2022-11-20T14:02:11;12.30;54.90
75113;DHT22;63692;47.338;8.520;2022-11-20T14:04:43;12.40;53.00
75113;DHT22;63692;47.338;8.520;2022-11-20T14:07:10;12.80;54.70
75113;DHT22;63692;47.338;8.520;2022-11-20T14:09:36;12.80;53.50
75113;DHT22;63692;47.338;8.520;2022-11-20T14:51:39;10.50;56.80
75113;DHT22;63692;47.338;8.520;2022-11-20T14:54:19;10.30;58.00
75113;DHT22;63692;47.338;8.520;2022-11-20T14:57:01;10.20;58.60
75113;DHT22;63692;47.338;8.520;2022-11-20T15:09:19;9.40;63.60
75113;DHT22;63692;47.338;8.520;2022-11-20T15:11:58;9.20;64.30
75113;DHT22;63692;47.338;8.520;2022-11-20T15:39:22;8.30;71.40
75113;DHT22;63692;47.338;8.520;2022-11-20T15:41:48;8.40;71.40
75113;DHT22;63692;47.338;8.520;2022-11-20T15:46:42;8.20;71.30
75113;DHT22;63692;47.338;8.520;2022-11-20T15:49:15;8.00;71.80
75113;DHT22;63692;47.338;8.520;2022-11-20T15:51:44;8.00;72.50
75113;DHT22;63692;47.338;8.520;2022-11-20T15:54:14;7.80;73.60
75113;DHT22;63692;47.338;8.520;2022-11-20T15:56:40;7.80;73.80
75113;DHT22;63692;47.338;8.520;2022-11-20T15:59:06;7.70;73.90
75113;DHT22;63692;47.338;8.520;2022-11-20T16:01:33;7.70;73.80
75113;DHT22;63692;47.338;8.520;2022-11-20T16:03:59;7.80;75.10
75113;DHT22;63692;47.338;8.520;2022-11-20T16:06:25;7.70;75.00
75113;DHT22;63692;47.338;8.520;2022-11-20T16:08:51;7.60;75.90
75113;DHT22;63692;47.338;8.520;2022-11-20T16:11:17;7.70;75.40
75113;DHT22;63692;47.338;8.520;2022-11-20T16:13:44;7.50;74.80
75113;DHT22;63692;47.338;8.520;2022-11-20T16:16:33;7.40;75.20
75113;DHT22;63692;47.338;8.520;2022-11-20T16:18:59;7.40;76.20
75113;DHT22;63692;47.338;8.520;2022-11-20T16:21:25;7.40;76.00
75113;DHT22;63692;47.338;8.520;2022-11-20T16:23:59;7.40;76.10
75113;DHT22;63692;47.338;8.520;2022-11-20T16:28:52;7.30;76.00
75113;DHT22;63692;47.338;8.520;2022-11-20T16:33:55;7.30;75.00
75113;DHT22;63692;47.338;8.520;2022-11-20T16:36:23;7.30;76.30
75113;DHT22;63692;47.338;8.520;2022-11-20T16:38:55;7.20;76.50
75113;DHT22;63692;47.338;8.520;2022-11-20T16:41:22;7.20;76.60
75113;DHT22;63692;47.338;8.520;2022-11-20T16:43:50;7.20;75.00
75113;DHT22;63692;47.338;8.520;2022-11-20T16:46:18;7.20;75.80
75113;DHT22;63692;47.338;8.520;2022-11-20T16:48:44;7.20;76.50
75113;DHT22;63692;47.338;8.520;2022-11-20T16:51:11;7.20;76.90
75113;DHT22;63692;47.338;8.520;2022-11-20T16:53:38;7.10;76.40
75113;DHT22;63692;47.338;8.520;2022-11-20T16:56:18;7.10;77.10
75113;DHT22;63692;47.338;8.520;2022-11-20T16:58:45;7.00;76.80
75113;DHT22;63692;47.338;8.520;2022-11-20T17:01:14;7.00;78.10
75113;DHT22;63692;47.338;8.520;2022-11-20T17:06:14;7.10;77.90
75113;DHT22;63692;47.338;8.520;2022-11-20T17:08:41;7.10;75.60
75113;DHT22;63692;47.338;8.520;2022-11-20T17:13:35;7.30;74.00
75113;DHT22;63692;47.338;8.520;2022-11-20T17:16:07;7.20;73.50
75113;DHT22;63692;47.338;8.520;2022-11-20T17:21:05;7.30;75.30
75113;DHT22;63692;47.338;8.520;2022-11-20T17:23:32;7.30;72.30
75113;DHT22;63692;47.338;8.520;2022-11-20T17:26:04;7.30;72.90
75113;DHT22;63692;47.338;8.520;2022-11-20T17:28:31;7.30;73.30
75113;DHT22;63692;47.338;8.520;2022-11-20T17:31:01;7.30;73.80
75113;DHT22;63692;47.338;8.520;2022-11-20T17:35:55;7.30;71.80
75113;DHT22;63692;47.338;8.520;2022-11-20T17:38:20;7.30;72.90
75113;DHT22;63692;47.338;8.520;2022-11-20T17:40:46;7.30;72.90
75113;DHT22;63692;47.338;8.520;2022-11-20T17:43:12;7.20;73.40
75113;DHT22;63692;47.338;8.520;2022-11-20T17:45:37;7.20;75.00
75113;DHT22;63692;47.338;8.520;2022-11-20T17:48:03;7.20;73.90
75113;DHT22;63692;47.338;8.520;2022-11-20T17:50:29;7.20;73.70
75113;DHT22;63692;47.338;8.520;2022-11-20T17:52:55;7.20;75.10
75113;DHT22;63692;47.338;8.520;2022-11-20T17:55:20;7.20;76.70
75113;DHT22;63692;47.338;8.520;2022-11-20T17:57:46;7.20;74.50
75113;DHT22;63692;47.338;8.520;2022-11-20T18:00:20;7.20;73.80
75113;DHT22;63692;47.338;8.520;2022-11-20T18:02:46;7.20;73.80
75113;DHT22;63692;47.338;8.520;2022-11-20T18:05:12;7.30;72.50
75113;DHT22;63692;47.338;8.520;2022-11-20T18:07:38;7.30;72.00
75113;DHT22;63692;47.338;8.520;2022-11-20T18:10:05;7.30;73.20
75113;DHT22;63692;47.338;8.520;2022-11-20T18:12:31;7.40;71.90
75113;DHT22;63692;47.338;8.520;2022-11-20T18:14:57;7.40;72.70
75113;DHT22;63692;47.338;8.520;2022-11-20T18:17:22;7.50;72.70
75113;DHT22;63692;47.338;8.520;2022-11-20T18:19:48;7.60;72.00
75113;DHT22;63692;47.338;8.520;2022-11-20T18:22:16;7.60;71.00
75113;DHT22;63692;47.338;8.520;2022-11-20T18:24:42;7.70;71.30
75113;DHT22;63692;47.338;8.520;2022-11-20T18:27:15;7.70;70.20
75113;DHT22;63692;47.338;8.520;2022-11-20T18:29:40;7.80;71.80
75113;DHT22;63692;47.338;8.520;2022-11-20T18:32:06;7.80;70.00
75113;DHT22;63692;47.338;8.520;2022-11-20T18:34:32;7.90;69.80
75113;DHT22;63692;47.338;8.520;2022-11-20T18:36:57;7.90;69.30
75113;DHT22;63692;47.338;8.520;2022-11-20T18:39:23;7.90;69.30
75113;DHT22;63692;47.338;8.520;2022-11-20T18:41:49;7.90;70.50
75113;DHT22;63692;47.338;8.520;2022-11-20T18:44:33;8.00;69.80
75113;DHT22;63692;47.338;8.520;2022-11-20T18:47:21;8.10;69.40
75113;DHT22;63692;47.338;8.520;2022-11-20T18:49:49;8.20;68.90
75113;DHT22;63692;47.338;8.520;2022-11-20T18:52:18;8.20;68.90
75113;DHT22;63692;47.338;8.520;2022-11-20T18:54:43;8.20;70.20
75113;DHT22;63692;47.338;8.520;2022-11-20T18:57:09;8.20;71.20
75113;DHT22;63692;47.338;8.520;2022-11-20T18:59:39;8.30;69.20
75113;DHT22;63692;47.338;8.520;2022-11-20T19:02:11;8.30;69.30
75113;DHT22;63692;47.338;8.520;2022-11-20T19:04:37;8.30;66.50
75113;DHT22;63692;47.338;8.520;2022-11-20T19:07:03;8.10;67.60
75113;DHT22;63692;47.338;8.520;2022-11-20T19:09:29;8.00;67.30
75113;DHT22;63692;47.338;8.520;2022-11-20T19:11:55;8.00;66.50
75113;DHT22;63692;47.338;8.520;2022-11-20T19:14:21;7.90;67.60
75113;DHT22;63692;47.338;8.520;2022-11-20T19:16:46;7.90;68.10
75113;DHT22;63692;47.338;8.520;2022-11-20T19:19:14;7.90;68.20
75113;DHT22;63692;47.338;8.520;2022-11-20T19:21:39;7.90;67.40
75113;DHT22;63692;47.338;8.520;2022-11-20T19:24:07;7.90;67.60
75113;DHT22;63692;47.338;8.520;2022-11-20T19:26:37;7.90;68.40
75113;DHT22;63692;47.338;8.520;2022-11-20T19:29:15;7.90;70.40
75113;DHT22;63692;47.338;8.520;2022-11-20T19:31:42;7.90;70.40
75113;DHT22;63692;47.338;8.520;2022-11-20T19:36:36;7.70;72.80
75113;DHT22;63692;47.338;8.520;2022-11-20T19:39:04;7.70;73.90
